createdAt,value
2023-03-28T00:01:33.707Z,6.10
2023-03-28T00:04:01.563Z,6.10
2023-03-28T00:06:29.312Z,6.09
2023-03-28T00:08:57.628Z,6.00
2023-03-28T00:11:25.525Z,5.99
2023-03-28T00:13:58.018Z,5.92
2023-03-28T00:16:27.293Z,5.95
2023-03-28T00:18:56.479Z,5.91
2023-03-28T00:21:27.228Z,5.91
2023-03-28T00:23:57.125Z,5.91
2023-03-28T00:26:26.781Z,5.88
2023-03-28T00:28:55.013Z,5.77
2023-03-28T00:31:23.806Z,5.79
2023-03-28T00:33:51.544Z,5.75
2023-03-28T00:36:22.911Z,5.72
2023-03-28T00:38:52.134Z,5.60
2023-03-28T00:41:21.703Z,5.74
2023-03-28T00:43:51.748Z,5.36
2023-03-28T00:46:24.055Z,5.80
2023-03-28T00:48:54.632Z,5.68
2023-03-28T00:51:27.094Z,5.64
2023-03-28T00:53:59.956Z,5.49
2023-03-28T00:56:31.301Z,5.60
2023-03-28T00:59:02.560Z,5.68
2023-03-28T01:01:30.500Z,5.58
2023-03-28T01:04:03.016Z,5.55
2023-03-28T01:06:36.636Z,5.64
2023-03-28T01:09:08.853Z,5.61
2023-03-28T01:11:40.284Z,5.68
2023-03-28T01:14:16.463Z,5.65
2023-03-28T01:16:45.993Z,5.64
2023-03-28T01:19:27.968Z,5.54
2023-03-28T01:22:24.745Z,5.46
2023-03-28T01:25:35.992Z,5.44
2023-03-28T01:28:08.709Z,5.38
2023-03-28T01:31:06.433Z,5.29
2023-03-28T01:34:55.871Z,5.24
2023-03-28T01:37:34.355Z,5.25
2023-03-28T01:40:28.601Z,5.20
2023-03-28T01:43:14.284Z,5.16
2023-03-28T01:45:52.037Z,5.11
2023-03-28T01:48:33.204Z,5.11
2023-03-28T01:51:11.174Z,5.05
2023-03-28T01:53:45.502Z,4.97
2023-03-28T01:56:22.363Z,4.95
2023-03-28T01:58:59.709Z,4.98
2023-03-28T02:01:53.964Z,4.93
2023-03-28T02:04:26.619Z,4.90
2023-03-28T02:06:58.170Z,4.79
2023-03-28T02:09:33.934Z,4.86
2023-03-28T02:12:37.759Z,4.77
2023-03-28T02:15:13.770Z,4.64
2023-03-28T02:18:18.026Z,4.81
2023-03-28T02:20:57.802Z,4.71
2023-03-28T02:23:57.613Z,4.69
2023-03-28T02:26:47.832Z,4.62
2023-03-28T02:29:39.094Z,4.61
2023-03-28T02:32:17.304Z,4.62
2023-03-28T02:34:48.885Z,4.59
2023-03-28T02:37:29.031Z,4.33
2023-03-28T02:40:13.828Z,4.50
2023-03-28T02:43:05.043Z,4.53
2023-03-28T02:45:48.269Z,4.53
2023-03-28T02:48:26.570Z,4.47
2023-03-28T02:51:06.155Z,4.53
2023-03-28T02:53:44.767Z,4.54
2023-03-28T02:56:19.154Z,4.51
2023-03-28T02:59:13.848Z,4.47
2023-03-28T03:01:41.864Z,4.47
2023-03-28T03:04:09.732Z,4.51
2023-03-28T03:06:37.595Z,4.27
2023-03-28T03:09:08.562Z,4.46
2023-03-28T03:11:36.375Z,4.47
2023-03-28T03:14:04.269Z,4.38
2023-03-28T03:16:34.436Z,4.41
2023-03-28T03:19:02.296Z,4.40
2023-03-28T03:21:30.094Z,4.46
2023-03-28T03:23:57.887Z,4.41
2023-03-28T03:26:26.632Z,4.37
2023-03-28T03:29:03.035Z,4.42
2023-03-28T03:31:33.884Z,4.40
2023-03-28T03:34:13.475Z,4.43
2023-03-28T03:36:46.493Z,4.47
2023-03-28T03:39:15.764Z,4.34
2023-03-28T03:41:43.504Z,4.41
2023-03-28T03:44:11.460Z,4.26
2023-03-28T03:46:41.045Z,4.32
2023-03-28T03:49:11.342Z,3.99
2023-03-28T03:51:40.135Z,3.73
2023-03-28T03:54:08.557Z,4.00
2023-03-28T03:56:38.909Z,4.24
2023-03-28T03:59:06.908Z,4.16
2023-03-28T04:01:40.045Z,4.12
2023-03-28T04:04:47.874Z,4.20
2023-03-28T04:07:24.365Z,4.13
2023-03-28T04:09:54.768Z,4.19
2023-03-28T04:12:25.734Z,4.21
2023-03-28T04:14:56.606Z,3.91
2023-03-28T04:17:37.858Z,4.17
2023-03-28T04:20:15.303Z,4.23
2023-03-28T04:23:05.762Z,3.91
2023-03-28T04:25:34.020Z,4.16
2023-03-28T04:28:09.426Z,4.22
2023-03-28T04:30:44.526Z,4.00
2023-03-28T04:33:33.843Z,4.09
2023-03-28T04:36:05.902Z,4.06
2023-03-28T04:38:38.158Z,3.86
2023-03-28T04:41:26.461Z,4.11
2023-03-28T04:44:03.316Z,3.19
2023-03-28T04:46:36.299Z,3.99
2023-03-28T04:49:10.969Z,3.81
2023-03-28T04:51:40.290Z,3.93
2023-03-28T04:54:08.175Z,4.01
2023-03-28T04:56:49.418Z,3.76
2023-03-28T04:59:24.635Z,4.01
2023-03-28T05:01:53.769Z,3.62
2023-03-28T05:04:52.061Z,3.97
2023-03-28T05:07:21.444Z,4.08
2023-03-28T05:09:49.669Z,4.15
2023-03-28T05:12:17.585Z,3.89
2023-03-28T05:15:04.817Z,3.89
2023-03-28T05:17:34.616Z,4.14
2023-03-28T05:20:11.115Z,4.10
2023-03-28T05:22:54.096Z,4.05
2023-03-28T05:25:22.943Z,4.07
2023-03-28T05:27:51.354Z,4.03
2023-03-28T05:30:20.749Z,4.06
2023-03-28T05:32:52.886Z,4.00
2023-03-28T05:35:21.656Z,3.80
2023-03-28T05:37:52.936Z,4.10
2023-03-28T05:40:21.076Z,4.12
2023-03-28T05:42:50.769Z,3.87
2023-03-28T05:45:21.298Z,4.03
2023-03-28T05:47:56.960Z,3.92
2023-03-28T05:50:26.261Z,3.99
2023-03-28T05:53:01.304Z,3.89
2023-03-28T05:55:30.945Z,3.87
2023-03-28T05:57:59.517Z,4.03
2023-03-28T06:00:37.167Z,4.05
2023-03-28T06:03:05.610Z,3.97
2023-03-28T06:05:37.498Z,4.13
2023-03-28T06:08:16.636Z,3.93
2023-03-28T06:10:46.808Z,4.15
2023-03-28T06:13:37.347Z,4.20
2023-03-28T06:16:10.333Z,4.13
2023-03-28T06:18:38.104Z,4.18
2023-03-28T06:21:06.578Z,4.21
2023-03-28T06:23:35.707Z,4.28
2023-03-28T06:26:04.986Z,4.39
2023-03-28T06:28:39.171Z,4.39
2023-03-28T06:31:19.637Z,4.34
2023-03-28T06:33:47.853Z,4.38
2023-03-28T06:36:18.999Z,4.39
2023-03-28T06:38:50.130Z,4.33
2023-03-28T06:41:18.199Z,4.38
2023-03-28T06:43:46.215Z,4.19
2023-03-28T06:46:52.438Z,4.45
2023-03-28T06:49:21.278Z,4.39
2023-03-28T06:52:27.395Z,4.53
2023-03-28T06:54:58.965Z,4.46
2023-03-28T06:57:27.261Z,4.32
2023-03-28T07:00:08.286Z,4.51
2023-03-28T07:02:54.431Z,4.59
2023-03-28T07:05:22.252Z,4.63
2023-03-28T07:07:50.358Z,4.69
2023-03-28T07:10:20.665Z,4.72
2023-03-28T07:12:49.142Z,4.73
2023-03-28T07:15:19.030Z,4.78
2023-03-28T07:17:48.281Z,4.83
2023-03-28T07:20:16.146Z,4.89
2023-03-28T07:22:44.050Z,4.86
2023-03-28T07:25:11.926Z,4.92
2023-03-28T07:27:41.617Z,5.03
2023-03-28T07:30:10.510Z,5.10
2023-03-28T07:32:48.113Z,5.15
2023-03-28T07:35:20.373Z,5.15
2023-03-28T07:37:50.601Z,5.20
2023-03-28T07:40:32.036Z,5.24
2023-03-28T07:43:01.382Z,5.21
2023-03-28T07:45:29.227Z,5.31
2023-03-28T07:47:57.419Z,5.28
2023-03-28T07:50:25.264Z,5.41
2023-03-28T07:52:57.603Z,5.53
2023-03-28T07:55:26.973Z,5.56
2023-03-28T07:57:55.455Z,5.58
2023-03-28T08:00:32.090Z,5.64
2023-03-28T08:03:24.089Z,5.65
2023-03-28T08:05:52.445Z,5.69
2023-03-28T08:08:23.036Z,5.70
2023-03-28T08:11:06.575Z,5.61
2023-03-28T08:13:34.955Z,5.80
2023-03-28T08:16:11.058Z,5.87
2023-03-28T08:18:38.877Z,5.86
2023-03-28T08:21:08.116Z,5.90
2023-03-28T08:23:36.670Z,5.92
2023-03-28T08:26:27.068Z,5.90
2023-03-28T08:28:58.795Z,5.93
2023-03-28T08:31:30.536Z,5.98
2023-03-28T08:34:04.986Z,6.02
2023-03-28T08:36:37.719Z,6.09
2023-03-28T08:39:06.306Z,6.10
2023-03-28T08:42:10.675Z,6.20
2023-03-28T08:44:53.661Z,6.15
2023-03-28T08:47:27.378Z,6.33
2023-03-28T08:50:01.296Z,6.34
2023-03-28T08:52:30.459Z,6.41
2023-03-28T08:55:04.649Z,6.59
2023-03-28T08:57:35.247Z,6.73
2023-03-28T09:00:13.135Z,6.87
2023-03-28T09:02:43.388Z,7.01
2023-03-28T09:08:01.105Z,7.20
2023-03-28T09:10:36.230Z,7.16
2023-03-28T09:13:25.529Z,7.23
2023-03-28T09:16:07.081Z,7.37
2023-03-28T09:18:51.972Z,7.35
2023-03-28T09:21:28.975Z,7.30
2023-03-28T09:24:23.299Z,7.33
2023-03-28T09:27:20.149Z,7.37
2023-03-28T09:29:50.324Z,7.33
2023-03-28T09:32:25.009Z,7.47
2023-03-28T09:34:54.147Z,7.55
2023-03-28T09:37:30.814Z,7.55
2023-03-28T09:40:03.748Z,7.53
2023-03-28T09:42:50.785Z,7.59
2023-03-28T09:45:54.139Z,7.64
2023-03-28T09:48:41.042Z,7.59
2023-03-28T09:51:17.605Z,7.94
2023-03-28T09:53:47.180Z,7.98
2023-03-28T09:56:26.068Z,8.13
2023-03-28T09:58:56.191Z,8.27
2023-03-28T10:01:49.136Z,8.21
2023-03-28T10:04:34.395Z,8.27
2023-03-28T10:07:35.034Z,8.44
2023-03-28T10:10:21.753Z,8.49
2023-03-28T10:12:59.518Z,8.52
2023-03-28T10:15:40.569Z,8.71
2023-03-28T10:18:32.769Z,8.96
2023-03-28T10:21:16.590Z,9.23
2023-03-28T10:23:58.228Z,9.45
2023-03-28T10:26:28.349Z,9.46
2023-03-28T10:29:04.298Z,9.37
2023-03-28T10:31:34.238Z,9.27
2023-03-28T10:34:34.243Z,9.52
2023-03-28T10:37:27.657Z,9.37
2023-03-28T10:40:29.951Z,9.46
2023-03-28T10:43:16.779Z,9.65
2023-03-28T10:46:06.211Z,9.73
2023-03-28T10:48:53.836Z,9.90
2023-03-28T10:51:24.492Z,9.95
2023-03-28T10:54:26.489Z,9.99
2023-03-28T10:56:58.833Z,10.15
2023-03-28T10:59:42.736Z,10.30
2023-03-28T11:02:37.106Z,10.50
2023-03-28T11:05:23.943Z,10.66
2023-03-28T11:08:00.589Z,10.68
2023-03-28T11:11:12.007Z,10.63
2023-03-28T11:13:58.993Z,10.63
2023-03-28T11:16:40.919Z,10.62
2023-03-28T11:19:38.431Z,10.61
2023-03-28T11:22:15.379Z,10.62
2023-03-28T11:24:53.383Z,10.65
2023-03-28T11:27:52.368Z,10.84
2023-03-28T11:30:33.251Z,10.97
2023-03-28T11:33:49.733Z,11.12
2023-03-28T11:36:29.364Z,11.15
2023-03-28T11:39:02.347Z,11.25
2023-03-28T11:41:34.098Z,11.38
2023-03-28T11:44:13.309Z,11.53
2023-03-28T11:46:49.739Z,11.50
2023-03-28T11:49:23.299Z,11.39
2023-03-28T11:51:57.182Z,11.14
2023-03-28T11:54:32.561Z,10.86
2023-03-28T11:57:05.012Z,11.03
2023-03-28T11:59:54.627Z,10.94
2023-03-28T12:02:42.316Z,11.05
2023-03-28T12:05:20.985Z,11.31
2023-03-28T12:07:55.599Z,11.74
2023-03-28T12:10:36.003Z,12.32
2023-03-28T12:13:13.420Z,12.78
2023-03-28T12:15:56.773Z,13.19
2023-03-28T12:18:31.734Z,13.92
2023-03-28T12:21:05.631Z,14.38
2023-03-28T12:23:44.825Z,14.86
2023-03-28T12:26:38.056Z,15.27
2023-03-28T12:29:16.174Z,15.23
2023-03-28T12:31:49.044Z,14.86
2023-03-28T12:34:33.504Z,14.65
2023-03-28T12:37:29.861Z,14.89
2023-03-28T12:40:19.885Z,15.34
2023-03-28T12:42:50.054Z,15.86
2023-03-28T12:45:21.833Z,16.27
2023-03-28T12:47:53.882Z,16.47
2023-03-28T12:50:29.980Z,16.37
2023-03-28T12:53:00.266Z,15.99
2023-03-28T12:55:47.803Z,15.46
2023-03-28T12:58:25.535Z,15.00
2023-03-28T13:01:28.869Z,14.57
2023-03-28T13:04:23.139Z,14.42
2023-03-28T13:07:08.231Z,14.77
2023-03-28T13:10:04.648Z,15.36
2023-03-28T13:12:47.254Z,15.90
2023-03-28T13:15:31.905Z,15.21
2023-03-28T13:18:27.773Z,14.50
2023-03-28T13:20:56.601Z,14.00
2023-03-28T13:23:32.123Z,13.74
2023-03-28T13:26:02.428Z,13.63
2023-03-28T13:28:33.679Z,13.51
2023-03-28T13:31:11.218Z,13.31
2023-03-28T13:33:45.203Z,13.10
2023-03-28T13:36:28.772Z,13.08
2023-03-28T13:39:21.612Z,12.90
2023-03-28T13:42:05.975Z,13.09
2023-03-28T13:44:40.862Z,12.96
2023-03-28T13:47:16.389Z,12.99
2023-03-28T13:49:49.129Z,13.04
2023-03-28T13:52:20.567Z,12.93
2023-03-28T13:54:54.295Z,12.81
2023-03-28T13:57:26.048Z,12.92
2023-03-28T13:59:56.414Z,13.19
2023-03-28T14:02:33.901Z,13.12
2023-03-28T14:05:14.005Z,13.37
2023-03-28T14:07:42.287Z,14.15
2023-03-28T14:10:32.836Z,14.47
2023-03-28T14:13:03.942Z,14.52
2023-03-28T14:15:36.172Z,14.60
2023-03-28T14:18:04.792Z,14.92
2023-03-28T14:20:34.470Z,14.74
2023-03-28T14:23:02.304Z,14.61
2023-03-28T14:25:31.904Z,14.52
2023-03-28T14:28:08.006Z,14.46
2023-03-28T14:30:40.433Z,14.20
2023-03-28T14:33:20.267Z,13.83
2023-03-28T14:35:57.806Z,13.71
2023-03-28T14:38:32.097Z,13.68
2023-03-28T14:41:17.134Z,13.52
2023-03-28T14:43:50.616Z,13.36
2023-03-28T14:46:18.529Z,13.23
2023-03-28T14:48:46.459Z,13.17
2023-03-28T14:51:14.945Z,13.18
2023-03-28T14:53:47.329Z,13.25
2023-03-28T14:56:23.250Z,13.28
2023-03-28T14:58:53.898Z,13.43
2023-03-28T15:01:23.807Z,13.52
2023-03-28T15:03:59.192Z,13.44
2023-03-28T15:06:29.339Z,13.40
2023-03-28T15:08:59.874Z,13.36
2023-03-28T15:11:32.403Z,13.37
2023-03-28T15:14:04.669Z,13.08
2023-03-28T15:16:37.891Z,12.82
2023-03-28T15:19:09.384Z,12.92
2023-03-28T15:21:39.696Z,12.71
2023-03-28T15:24:12.960Z,12.65
2023-03-28T15:26:45.111Z,12.64
2023-03-28T15:29:17.388Z,12.48
2023-03-28T15:31:45.836Z,12.45
2023-03-28T15:34:21.372Z,12.42
2023-03-28T15:36:52.468Z,12.42
2023-03-28T15:39:25.627Z,12.43
2023-03-28T15:42:00.214Z,12.19
2023-03-28T15:44:31.108Z,12.35
2023-03-28T15:47:06.719Z,12.33
2023-03-28T15:49:37.180Z,12.31
2023-03-28T15:52:09.332Z,12.31
2023-03-28T15:54:43.258Z,12.30
2023-03-28T15:57:15.422Z,12.23
2023-03-28T15:59:48.392Z,12.07
2023-03-28T16:02:32.984Z,11.96
2023-03-28T16:05:02.639Z,11.90
2023-03-28T16:07:36.675Z,11.96
2023-03-28T16:10:05.004Z,11.91
2023-03-28T16:12:39.583Z,11.86
2023-03-28T16:15:35.476Z,11.91
2023-03-28T16:18:16.624Z,11.89
2023-03-28T16:20:50.819Z,11.89
2023-03-28T16:23:18.514Z,11.90
2023-03-28T16:25:46.541Z,11.83
2023-03-28T16:28:18.894Z,11.84
2023-03-28T16:30:47.005Z,11.60
2023-03-28T16:33:14.941Z,11.77
2023-03-28T16:35:42.832Z,11.74
2023-03-28T16:38:11.761Z,11.69
2023-03-28T16:40:39.754Z,11.63
2023-03-28T16:43:08.114Z,11.60
2023-03-28T16:45:38.122Z,11.55
2023-03-28T16:48:06.031Z,11.51
2023-03-28T16:50:33.779Z,11.49
2023-03-28T16:53:02.238Z,11.50
2023-03-28T16:55:30.000Z,11.41
2023-03-28T16:57:57.718Z,11.40
2023-03-28T17:00:36.251Z,11.40
2023-03-28T17:03:05.811Z,11.39
2023-03-28T17:05:33.649Z,11.39
2023-03-28T17:08:02.087Z,11.34
2023-03-28T17:10:29.901Z,11.30
2023-03-28T17:12:57.897Z,11.32
2023-03-28T17:15:26.123Z,11.31
2023-03-28T17:17:53.889Z,11.26
2023-03-28T17:20:23.074Z,11.28
2023-03-28T17:22:50.821Z,11.26
2023-03-28T17:25:18.995Z,11.25
2023-03-28T17:27:46.712Z,11.23
2023-03-28T17:30:15.789Z,11.20
2023-03-28T17:32:43.656Z,11.17
2023-03-28T17:35:12.355Z,11.17
2023-03-28T17:37:41.709Z,11.15
2023-03-28T17:40:10.496Z,11.12
2023-03-28T17:42:38.367Z,11.10
2023-03-28T17:45:07.503Z,11.05
2023-03-28T17:47:35.789Z,11.05
2023-03-28T17:50:03.676Z,11.04
2023-03-28T17:52:32.104Z,10.97
2023-03-28T17:55:01.317Z,10.94
2023-03-28T17:57:29.087Z,10.92
2023-03-28T17:59:56.831Z,10.89
2023-03-28T18:02:25.019Z,10.84
2023-03-28T18:05:03.435Z,10.81
2023-03-28T18:07:32.657Z,10.75
2023-03-28T18:10:05.496Z,10.77
2023-03-28T18:12:33.314Z,10.76
2023-03-28T18:15:01.494Z,10.71
2023-03-28T18:17:29.611Z,10.68
2023-03-28T18:19:57.550Z,10.62
2023-03-28T18:22:25.588Z,10.66
2023-03-28T18:24:54.352Z,10.66
2023-03-28T18:27:23.570Z,10.63
2023-03-28T18:29:51.285Z,10.64
2023-03-28T18:32:18.983Z,10.66
2023-03-28T18:34:46.706Z,10.66
2023-03-28T18:37:14.809Z,10.59
2023-03-28T18:39:42.702Z,10.52
2023-03-28T18:42:10.739Z,10.64
2023-03-28T18:44:40.914Z,10.56
2023-03-28T18:47:10.755Z,10.49
2023-03-28T18:49:38.447Z,10.40
2023-03-28T18:52:06.167Z,10.33
2023-03-28T18:54:35.127Z,10.08
2023-03-28T18:57:03.321Z,10.12
2023-03-28T18:59:31.432Z,10.12
2023-03-28T19:02:00.839Z,10.07
2023-03-28T19:04:28.725Z,10.07
2023-03-28T19:06:56.494Z,9.99
2023-03-28T19:09:24.250Z,9.98
2023-03-28T19:11:52.450Z,9.95
2023-03-28T19:14:20.320Z,10.00
2023-03-28T19:16:48.084Z,9.77
2023-03-28T19:19:17.629Z,9.60
2023-03-28T19:21:45.347Z,9.60
2023-03-28T19:24:13.069Z,9.43
2023-03-28T19:26:40.883Z,9.31
2023-03-28T19:29:08.598Z,9.15
2023-03-28T19:31:36.525Z,8.92
2023-03-28T19:34:04.259Z,8.86
2023-03-28T19:36:33.417Z,8.65
2023-03-28T19:39:02.161Z,8.62
2023-03-28T19:41:30.020Z,8.62
2023-03-28T19:43:57.786Z,8.60
2023-03-28T19:46:33.246Z,8.57
2023-03-28T19:49:05.709Z,8.63
2023-03-28T19:51:35.172Z,8.59
2023-03-28T19:54:03.138Z,8.44
2023-03-28T19:56:30.974Z,8.62
2023-03-28T19:58:58.740Z,8.50
2023-03-28T20:01:26.541Z,8.60
2023-03-28T20:03:54.474Z,8.64
2023-03-28T20:06:23.329Z,8.71
2023-03-28T20:08:52.698Z,8.78
2023-03-28T20:11:20.568Z,8.77
2023-03-28T20:13:48.262Z,8.78
2023-03-28T20:16:16.518Z,8.87
2023-03-28T20:18:44.514Z,8.85
2023-03-28T20:21:13.558Z,8.69
2023-03-28T20:23:41.684Z,8.87
2023-03-28T20:26:16.296Z,8.88
2023-03-28T20:28:46.764Z,8.88
2023-03-28T20:31:14.610Z,8.89
2023-03-28T20:33:42.686Z,8.83
2023-03-28T20:36:10.640Z,8.85
2023-03-28T20:38:38.547Z,8.84
2023-03-28T20:41:11.039Z,8.82
2023-03-28T20:43:46.967Z,8.81
2023-03-28T20:46:18.241Z,8.80
2023-03-28T20:48:48.008Z,8.79
2023-03-28T20:51:18.592Z,8.76
2023-03-28T20:53:49.430Z,8.71
2023-03-28T20:56:18.779Z,8.81
2023-03-28T20:58:48.285Z,8.81
2023-03-28T21:01:17.591Z,8.66
2023-03-28T21:03:49.778Z,8.83
2023-03-28T21:06:20.444Z,8.81
2023-03-28T21:08:50.191Z,8.78
2023-03-28T21:11:19.844Z,8.68
2023-03-28T21:13:49.056Z,8.78
2023-03-28T21:16:17.964Z,8.73
2023-03-28T21:18:46.767Z,8.86
2023-03-28T21:21:16.908Z,8.81
2023-03-28T21:23:45.658Z,8.77
2023-03-28T21:26:16.010Z,8.68
2023-03-28T21:28:44.003Z,8.78
2023-03-28T21:31:15.387Z,8.75
2023-03-28T21:33:43.610Z,8.78
2023-03-28T21:36:14.124Z,8.73
2023-03-28T21:38:41.884Z,8.74
2023-03-28T21:41:11.207Z,8.75
2023-03-28T21:43:39.786Z,8.77
2023-03-28T21:46:08.696Z,8.70
2023-03-28T21:48:38.047Z,8.79
2023-03-28T21:51:06.768Z,8.54
2023-03-28T21:53:36.760Z,8.50
2023-03-28T21:56:06.550Z,8.36
2023-03-28T21:58:35.232Z,8.57
2023-03-28T22:01:04.145Z,8.63
2023-03-28T22:03:32.263Z,8.63
2023-03-28T22:06:01.373Z,8.66
2023-03-28T22:08:29.148Z,8.64
2023-03-28T22:11:01.191Z,8.67
2023-03-28T22:13:29.887Z,8.70
2023-03-28T22:15:59.676Z,8.75
2023-03-28T22:18:30.482Z,8.64
2023-03-28T22:21:02.395Z,8.69
2023-03-28T22:23:32.048Z,8.69
2023-03-28T22:25:59.773Z,8.68
2023-03-28T22:28:27.593Z,8.73
2023-03-28T22:30:56.704Z,8.72
2023-03-28T22:33:25.359Z,8.70
2023-03-28T22:35:54.095Z,8.33
2023-03-28T22:38:21.842Z,8.63
2023-03-28T22:40:51.181Z,8.63
2023-03-28T22:43:19.098Z,8.60
2023-03-28T22:45:47.377Z,8.58
2023-03-28T22:48:15.184Z,8.50
2023-03-28T22:50:45.367Z,8.51
2023-03-28T22:53:14.189Z,8.46
2023-03-28T22:55:42.349Z,8.50
2023-03-28T22:58:12.919Z,8.45
2023-03-28T23:00:41.162Z,8.41
2023-03-28T23:03:10.300Z,8.20
2023-03-28T23:05:38.478Z,8.43
2023-03-28T23:08:06.884Z,8.41
2023-03-28T23:10:35.227Z,8.34
2023-03-28T23:13:03.225Z,8.33
2023-03-28T23:15:32.968Z,8.26
2023-03-28T23:18:00.974Z,8.01
2023-03-28T23:20:29.420Z,8.33
2023-03-28T23:22:57.495Z,8.10
2023-03-28T23:25:26.078Z,8.40
2023-03-28T23:27:53.902Z,8.42
2023-03-28T23:30:22.006Z,8.35
2023-03-28T23:32:51.209Z,8.41
2023-03-28T23:35:19.235Z,8.30
2023-03-28T23:37:46.995Z,8.42
2023-03-28T23:40:15.505Z,8.35
2023-03-28T23:42:45.018Z,8.37
2023-03-28T23:45:14.609Z,8.36
2023-03-28T23:47:44.252Z,8.22
2023-03-28T23:50:14.263Z,8.31
2023-03-28T23:52:42.259Z,8.36
2023-03-28T23:55:10.658Z,8.32
2023-03-28T23:57:38.531Z,7.78
